createdAt,value
2023-03-22T00:01:28.723Z,16.87
2023-03-22T00:03:56.877Z,16.90
2023-03-22T00:06:25.696Z,16.94
2023-03-22T00:08:55.259Z,16.91
2023-03-22T00:11:25.840Z,16.82
2023-03-22T00:13:55.021Z,16.86
2023-03-22T00:16:24.690Z,16.86
2023-03-22T00:18:52.816Z,16.71
2023-03-22T00:21:21.197Z,16.69
2023-03-22T00:23:49.305Z,16.77
2023-03-22T00:26:17.398Z,16.70
2023-03-22T00:28:45.625Z,16.60
2023-03-22T00:31:15.680Z,16.64
2023-03-22T00:33:45.482Z,16.62
2023-03-22T00:36:14.368Z,16.56
2023-03-22T00:38:44.034Z,16.62
2023-03-22T00:41:14.341Z,16.69
2023-03-22T00:43:42.840Z,16.74
2023-03-22T00:46:12.194Z,16.77
2023-03-22T00:48:40.747Z,16.71
2023-03-22T00:51:11.634Z,16.73
2023-03-22T00:53:42.833Z,16.89
2023-03-22T00:56:15.814Z,16.87
2023-03-22T00:59:07.233Z,16.77
2023-03-22T01:01:35.438Z,16.71
2023-03-22T01:04:05.139Z,16.82
2023-03-22T01:06:35.480Z,16.62
2023-03-22T01:09:05.045Z,16.72
2023-03-22T01:11:36.721Z,16.66
2023-03-22T01:14:04.856Z,16.75
2023-03-22T01:16:33.013Z,16.75
2023-03-22T01:19:01.314Z,16.61
2023-03-22T01:21:29.583Z,16.61
2023-03-22T01:23:59.057Z,16.69
2023-03-22T01:26:27.161Z,16.61
2023-03-22T01:28:55.332Z,16.58
2023-03-22T01:31:23.512Z,16.63
2023-03-22T01:33:51.904Z,16.54
2023-03-22T01:36:21.023Z,16.49
2023-03-22T01:38:49.108Z,16.46
2023-03-22T01:41:18.844Z,16.36
2023-03-22T01:44:07.408Z,16.24
2023-03-22T01:46:35.738Z,16.24
2023-03-22T01:49:06.246Z,16.14
2023-03-22T01:51:35.342Z,16.20
2023-03-22T01:54:13.737Z,16.24
2023-03-22T01:56:43.652Z,16.24
2023-03-22T01:59:17.920Z,16.16
2023-03-22T02:02:10.867Z,16.06
2023-03-22T02:04:40.355Z,16.07
2023-03-22T02:07:15.472Z,16.18
2023-03-22T02:09:46.618Z,16.17
2023-03-22T02:12:29.593Z,16.26
2023-03-22T02:15:09.282Z,16.20
2023-03-22T02:18:11.559Z,16.12
2023-03-22T02:21:19.641Z,16.00
2023-03-22T02:24:27.172Z,16.15
2023-03-22T02:27:19.893Z,16.16
2023-03-22T02:29:52.602Z,16.19
2023-03-22T02:32:50.290Z,16.12
2023-03-22T02:35:53.627Z,16.06
2023-03-22T02:38:57.912Z,16.20
2023-03-22T02:41:35.350Z,16.12
2023-03-22T02:44:10.286Z,16.13
2023-03-22T02:46:45.315Z,16.02
2023-03-22T02:49:20.149Z,16.10
2023-03-22T02:51:53.700Z,16.07
2023-03-22T02:54:30.026Z,16.04
2023-03-22T02:57:04.231Z,16.10
2023-03-22T02:59:38.494Z,16.18
2023-03-22T03:02:08.304Z,16.14
2023-03-22T03:04:41.548Z,16.12
2023-03-22T03:07:14.269Z,16.03
2023-03-22T03:09:44.862Z,16.03
2023-03-22T03:12:21.232Z,15.99
2023-03-22T03:14:49.681Z,15.95
2023-03-22T03:17:27.669Z,16.06
2023-03-22T03:20:09.320Z,16.01
2023-03-22T03:22:50.756Z,15.98
2023-03-22T03:25:26.855Z,16.02
2023-03-22T03:28:03.347Z,16.01
2023-03-22T03:30:36.196Z,16.08
2023-03-22T03:33:09.520Z,15.87
2023-03-22T03:35:42.280Z,15.86
2023-03-22T03:38:17.538Z,15.86
2023-03-22T03:40:49.869Z,15.90
2023-03-22T03:43:18.808Z,15.97
2023-03-22T03:45:47.350Z,15.97
2023-03-22T03:48:20.472Z,15.80
2023-03-22T03:50:51.618Z,15.87
2023-03-22T03:53:20.375Z,15.83
2023-03-22T03:55:50.087Z,15.88
2023-03-22T03:58:18.887Z,15.93
2023-03-22T04:00:48.628Z,16.04
2023-03-22T04:03:42.944Z,16.02
2023-03-22T04:06:14.141Z,15.99
2023-03-22T04:08:53.578Z,15.95
2023-03-22T04:11:27.070Z,15.98
2023-03-22T04:14:00.876Z,16.03
2023-03-22T04:16:29.285Z,16.04
2023-03-22T04:18:57.678Z,16.06
2023-03-22T04:21:26.021Z,16.10
2023-03-22T04:24:02.647Z,16.05
2023-03-22T04:26:37.319Z,16.04
2023-03-22T04:29:25.452Z,16.03
2023-03-22T04:32:01.004Z,16.00
2023-03-22T04:34:47.694Z,16.03
2023-03-22T04:37:19.445Z,16.19
2023-03-22T04:39:53.384Z,16.10
2023-03-22T04:42:38.290Z,16.03
2023-03-22T04:45:15.067Z,15.89
2023-03-22T04:47:47.278Z,16.07
2023-03-22T04:50:15.728Z,16.16
2023-03-22T04:52:58.519Z,16.13
2023-03-22T04:55:27.713Z,16.21
2023-03-22T04:57:57.465Z,16.22
2023-03-22T05:00:26.271Z,16.25
2023-03-22T05:02:55.196Z,16.20
2023-03-22T05:05:41.814Z,16.22
2023-03-22T05:08:10.178Z,16.21
2023-03-22T05:10:41.721Z,16.16
2023-03-22T05:13:11.960Z,16.16
2023-03-22T05:15:44.394Z,16.15
2023-03-22T05:18:15.587Z,16.16
2023-03-22T05:20:44.966Z,16.24
2023-03-22T05:23:19.375Z,16.19
2023-03-22T05:25:51.678Z,16.20
2023-03-22T05:28:22.617Z,16.15
2023-03-22T05:31:11.121Z,16.19
2023-03-22T05:33:55.515Z,16.21
2023-03-22T05:36:29.689Z,16.14
2023-03-22T05:39:14.916Z,16.18
2023-03-22T05:41:44.411Z,16.26
2023-03-22T05:44:14.114Z,16.22
2023-03-22T05:46:51.726Z,16.26
2023-03-22T05:49:49.386Z,16.22
2023-03-22T05:52:18.264Z,16.26
2023-03-22T05:55:07.971Z,16.26
2023-03-22T05:57:36.499Z,16.31
2023-03-22T06:00:13.519Z,16.34
2023-03-22T06:02:48.242Z,16.37
2023-03-22T06:05:18.454Z,16.32
2023-03-22T06:07:47.161Z,16.33
2023-03-22T06:10:18.359Z,16.32
2023-03-22T06:12:47.325Z,16.21
2023-03-22T06:15:25.858Z,16.28
2023-03-22T06:17:56.813Z,16.41
2023-03-22T06:20:29.055Z,16.39
2023-03-22T06:23:02.676Z,16.37
2023-03-22T06:25:31.051Z,16.42
2023-03-22T06:27:59.384Z,16.42
2023-03-22T06:30:29.488Z,16.47
2023-03-22T06:33:18.171Z,16.48
2023-03-22T06:35:50.541Z,16.58
2023-03-22T06:38:27.614Z,16.55
2023-03-22T06:40:55.977Z,16.54
2023-03-22T06:43:24.371Z,16.62
2023-03-22T06:45:59.617Z,16.48
2023-03-22T06:48:33.792Z,16.52
2023-03-22T06:51:07.383Z,16.42
2023-03-22T06:53:37.437Z,16.58
2023-03-22T06:56:06.798Z,16.61
2023-03-22T06:58:46.823Z,16.77
2023-03-22T07:01:16.695Z,16.65
2023-03-22T07:03:45.596Z,16.74
2023-03-22T07:06:16.599Z,16.71
2023-03-22T07:08:50.808Z,16.76
2023-03-22T07:11:25.959Z,16.86
2023-03-22T07:13:59.967Z,17.01
2023-03-22T07:16:38.308Z,17.10
2023-03-22T07:19:08.131Z,17.15
2023-03-22T07:21:37.853Z,17.20
2023-03-22T07:24:12.046Z,17.10
2023-03-22T07:26:40.906Z,17.02
2023-03-22T07:29:11.004Z,17.18
2023-03-22T07:31:41.190Z,17.10
2023-03-22T07:34:14.403Z,17.15
2023-03-22T07:37:06.581Z,17.45
2023-03-22T07:39:35.514Z,17.77
2023-03-22T07:42:04.754Z,18.02
2023-03-22T07:44:53.173Z,17.90
2023-03-22T07:47:39.575Z,17.76
2023-03-22T07:50:39.233Z,17.56
2023-03-22T07:53:07.946Z,17.64
2023-03-22T07:55:36.861Z,17.65
2023-03-22T07:58:06.088Z,17.63
2023-03-22T08:00:34.652Z,17.64
2023-03-22T08:03:24.321Z,17.40
2023-03-22T08:06:07.817Z,17.49
2023-03-22T08:08:37.994Z,17.50
2023-03-22T08:11:07.215Z,17.50
2023-03-22T08:13:36.356Z,17.51
2023-03-22T08:16:05.495Z,17.53
2023-03-22T08:18:35.469Z,17.39
2023-03-22T08:21:04.099Z,17.43
2023-03-22T08:23:41.828Z,17.29
2023-03-22T08:26:29.074Z,17.38
2023-03-22T08:29:02.290Z,17.30
2023-03-22T08:31:33.862Z,17.35
2023-03-22T08:34:03.657Z,17.38
2023-03-22T08:36:31.967Z,17.50
2023-03-22T08:39:04.270Z,17.59
2023-03-22T08:41:58.211Z,17.58
2023-03-22T08:44:28.325Z,17.56
2023-03-22T08:46:57.075Z,17.59
2023-03-22T08:49:27.288Z,17.61
2023-03-22T08:52:01.816Z,17.79
2023-03-22T08:54:48.530Z,17.91
2023-03-22T08:57:38.854Z,17.82
2023-03-22T09:00:20.895Z,17.65
2023-03-22T09:03:09.565Z,17.52
2023-03-22T09:05:40.413Z,17.64
2023-03-22T09:08:18.230Z,17.67
2023-03-22T09:10:52.110Z,17.65
2023-03-22T09:13:22.921Z,17.85
2023-03-22T09:15:56.807Z,18.02
2023-03-22T09:18:31.139Z,18.02
2023-03-22T09:21:05.433Z,17.91
2023-03-22T09:23:42.058Z,17.89
2023-03-22T09:26:12.160Z,17.92
2023-03-22T09:28:40.871Z,17.96
2023-03-22T09:31:11.652Z,18.00
2023-03-22T09:33:44.117Z,17.88
2023-03-22T09:36:13.943Z,17.96
2023-03-22T09:38:42.513Z,18.05
2023-03-22T09:41:15.439Z,18.07
2023-03-22T09:43:47.961Z,18.07
2023-03-22T09:46:19.005Z,17.97
2023-03-22T09:48:50.139Z,18.13
2023-03-22T09:51:34.812Z,18.09
2023-03-22T09:54:03.416Z,18.25
2023-03-22T09:56:33.555Z,18.15
2023-03-22T09:59:09.673Z,18.28
2023-03-22T10:01:46.957Z,18.24
2023-03-22T10:04:40.408Z,18.37
2023-03-22T10:07:19.896Z,18.37
2023-03-22T10:09:57.771Z,18.26
2023-03-22T10:12:30.489Z,17.99
2023-03-22T10:15:06.875Z,18.05
2023-03-22T10:17:38.999Z,18.12
2023-03-22T10:20:14.913Z,18.10
2023-03-22T10:22:47.161Z,17.94
2023-03-22T10:25:22.514Z,17.94
2023-03-22T10:27:52.927Z,18.10
2023-03-22T10:30:23.075Z,18.18
2023-03-22T10:32:58.451Z,18.12
2023-03-22T10:35:29.645Z,17.95
2023-03-22T10:38:03.251Z,18.06
2023-03-22T10:40:34.797Z,18.02
2023-03-22T10:43:07.747Z,17.97
2023-03-22T10:45:37.329Z,17.85
2023-03-22T10:48:11.077Z,17.77
2023-03-22T10:50:43.400Z,17.77
2023-03-22T10:53:22.505Z,17.79
2023-03-22T10:55:50.948Z,17.81
2023-03-22T10:58:20.943Z,17.64
2023-03-22T11:00:50.999Z,17.58
2023-03-22T11:03:28.670Z,17.47
2023-03-22T11:06:02.250Z,17.63
2023-03-22T11:08:40.407Z,17.39
2023-03-22T11:11:13.989Z,17.34
2023-03-22T11:13:42.318Z,17.32
2023-03-22T11:16:10.718Z,17.24
2023-03-22T11:18:43.116Z,17.15
2023-03-22T11:21:13.301Z,17.14
2023-03-22T11:23:51.281Z,17.14
2023-03-22T11:26:27.731Z,17.09
2023-03-22T11:29:16.819Z,17.03
2023-03-22T11:32:06.183Z,16.96
2023-03-22T11:34:34.551Z,17.08
2023-03-22T11:37:02.997Z,17.20
2023-03-22T11:39:32.662Z,17.19
2023-03-22T11:42:03.987Z,17.05
2023-03-22T11:44:35.983Z,17.13
2023-03-22T11:47:15.517Z,17.05
2023-03-22T11:49:48.019Z,17.08
2023-03-22T11:52:20.150Z,16.96
2023-03-22T11:54:50.804Z,16.93
2023-03-22T11:57:22.753Z,16.98
2023-03-22T11:59:58.177Z,17.05
2023-03-22T12:02:29.535Z,17.02
2023-03-22T12:05:05.599Z,16.85
2023-03-22T12:07:37.722Z,16.82
2023-03-22T12:10:14.529Z,16.95
2023-03-22T12:12:48.039Z,16.89
2023-03-22T12:15:21.233Z,16.86
2023-03-22T12:17:56.074Z,16.87
2023-03-22T12:20:36.136Z,16.95
2023-03-22T12:23:14.228Z,16.92
2023-03-22T12:25:47.918Z,16.84
2023-03-22T12:28:19.759Z,16.91
2023-03-22T12:30:52.067Z,17.06
2023-03-22T12:33:25.125Z,17.05
2023-03-22T12:35:58.145Z,17.09
2023-03-22T12:38:34.079Z,17.00
2023-03-22T12:41:12.329Z,17.07
2023-03-22T12:43:47.979Z,16.94
2023-03-22T12:46:21.760Z,17.01
2023-03-22T12:48:53.608Z,16.94
2023-03-22T12:51:22.140Z,16.89
2023-03-22T12:53:53.599Z,17.01
2023-03-22T12:56:25.477Z,16.91
2023-03-22T12:58:57.856Z,16.99
2023-03-22T13:01:36.588Z,16.92
2023-03-22T13:04:32.962Z,17.01
2023-03-22T13:07:15.322Z,17.08
2023-03-22T13:09:45.472Z,17.13
2023-03-22T13:12:35.157Z,16.98
2023-03-22T13:15:25.981Z,16.87
2023-03-22T13:17:59.994Z,16.66
2023-03-22T13:20:30.927Z,16.62
2023-03-22T13:23:26.370Z,16.46
2023-03-22T13:26:03.805Z,16.36
2023-03-22T13:28:38.132Z,16.28
2023-03-22T13:31:07.648Z,16.33
2023-03-22T13:33:38.802Z,16.27
2023-03-22T13:36:10.086Z,16.28
2023-03-22T13:38:42.493Z,16.35
2023-03-22T13:41:22.071Z,16.31
2023-03-22T13:43:53.390Z,16.18
2023-03-22T13:46:46.724Z,16.03
2023-03-22T13:49:33.708Z,16.15
2023-03-22T13:52:03.386Z,16.24
2023-03-22T13:54:37.727Z,16.05
2023-03-22T13:57:17.476Z,16.10
2023-03-22T14:00:11.960Z,16.06
2023-03-22T14:02:43.963Z,16.16
2023-03-22T14:05:17.654Z,16.06
2023-03-22T14:07:50.920Z,16.13
2023-03-22T14:10:23.491Z,16.20
2023-03-22T14:12:55.434Z,16.15
2023-03-22T14:15:27.618Z,16.05
2023-03-22T14:18:00.848Z,16.15
2023-03-22T14:20:34.833Z,16.27
